createdAt,value
2018-05-03T00:04:15.713Z,61.10
2018-05-03T00:09:07.234Z,61.70
2018-05-03T00:13:58.748Z,61.00
2018-05-03T00:18:50.259Z,61.40
2018-05-03T00:23:41.740Z,62.40
2018-05-03T00:28:33.244Z,62.60
2018-05-03T00:33:24.727Z,63.10
2018-05-03T00:38:16.205Z,63.60
2018-05-03T00:43:07.702Z,63.70
2018-05-03T00:47:59.925Z,63.30
2018-05-03T00:52:51.424Z,63.10
2018-05-03T00:57:42.913Z,63.50
2018-05-03T01:02:34.407Z,63.30
2018-05-03T01:07:25.933Z,62.80
2018-05-03T01:12:17.444Z,63.20
2018-05-03T01:17:08.936Z,63.80
2018-05-03T01:22:00.422Z,63.60
2018-05-03T01:26:52.011Z,63.80
2018-05-03T01:31:43.468Z,64.50
2018-05-03T01:36:35.733Z,65.90
2018-05-03T01:41:27.260Z,65.80
2018-05-03T01:46:18.768Z,66.80
2018-05-03T01:51:11.018Z,67.80
2018-05-03T01:56:03.258Z,68.20
2018-05-03T02:00:55.511Z,68.10
2018-05-03T02:05:47.033Z,68.10
2018-05-03T02:10:38.538Z,67.90
2018-05-03T02:15:30.049Z,68.60
2018-05-03T02:20:22.287Z,68.60
2018-05-03T02:25:14.495Z,69.60
2018-05-03T02:30:06.017Z,69.50
2018-05-03T02:34:57.537Z,69.50
2018-05-03T02:39:49.015Z,69.50
2018-05-03T02:44:40.495Z,69.50
2018-05-03T02:49:32.001Z,69.10
2018-05-03T02:54:24.229Z,69.60
2018-05-03T02:59:34.270Z,69.50
2018-05-03T03:04:50.578Z,70.00
2018-05-03T03:16:01.179Z,70.40
2018-05-03T03:21:18.391Z,70.40
2018-05-03T03:32:26.469Z,70.90
2018-05-03T03:37:36.629Z,71.40
2018-05-03T03:48:06.727Z,71.20
2018-05-03T03:52:58.192Z,71.40
2018-05-03T03:57:49.692Z,71.10
2018-05-03T04:02:41.206Z,70.90
2018-05-03T04:07:32.680Z,70.00
2018-05-03T04:12:24.236Z,69.20
2018-05-03T04:17:15.718Z,68.60
2018-05-03T04:22:25.917Z,68.20
2018-05-03T04:27:18.069Z,65.30
2018-05-03T04:32:09.549Z,65.90
2018-05-03T04:37:01.833Z,64.70
2018-05-03T04:41:53.335Z,64.70
2018-05-03T04:46:45.554Z,64.20
2018-05-03T04:51:37.045Z,64.00
2018-05-03T04:56:28.554Z,62.70
2018-05-03T05:01:20.812Z,62.20
2018-05-03T05:06:12.326Z,62.10
2018-05-03T05:11:04.633Z,61.80
2018-05-03T05:15:56.867Z,60.90
2018-05-03T05:20:48.370Z,60.80
2018-05-03T05:25:40.685Z,55.60
2018-05-03T05:30:32.209Z,55.50
2018-05-03T05:35:23.722Z,50.60
2018-05-03T05:40:15.298Z,48.50
2018-05-03T05:45:06.789Z,44.40
2018-05-03T05:49:58.246Z,41.70
2018-05-03T05:54:49.770Z,40.10
2018-05-03T05:59:41.311Z,40.20
2018-05-03T06:04:32.850Z,40.50
2018-05-03T06:09:24.363Z,40.00
2018-05-03T06:14:15.857Z,38.90
2018-05-03T06:19:08.106Z,38.20
2018-05-03T06:24:00.330Z,36.90
2018-05-03T06:28:51.951Z,36.80
2018-05-03T06:33:43.445Z,35.60
2018-05-03T06:38:34.957Z,35.20
2018-05-03T06:43:27.564Z,32.60
2018-05-03T06:48:19.055Z,32.40
2018-05-03T06:53:11.313Z,30.90
2018-05-03T06:58:03.557Z,29.40
2018-05-03T07:02:55.815Z,28.60
2018-05-03T07:07:47.364Z,28.50
2018-05-03T07:12:38.871Z,28.10
2018-05-03T07:17:31.120Z,27.60
2018-05-03T07:22:23.418Z,28.90
2018-05-03T07:27:15.618Z,29.20
2018-05-03T07:32:07.885Z,29.40
2018-05-03T07:37:00.128Z,29.40
2018-05-03T07:41:52.396Z,28.80
2018-05-03T07:46:43.897Z,28.70
2018-05-03T07:51:35.416Z,29.60
2018-05-03T07:56:26.910Z,30.80
2018-05-03T08:01:18.405Z,33.20
2018-05-03T08:06:10.649Z,32.00
2018-05-03T08:11:02.249Z,31.90
2018-05-03T08:15:53.711Z,30.10
2018-05-03T08:20:45.219Z,30.00
2018-05-03T08:25:36.726Z,29.20
2018-05-03T08:30:28.238Z,28.20
2018-05-03T08:35:20.468Z,28.70
2018-05-03T08:40:12.712Z,30.00
2018-05-03T08:45:04.233Z,29.40
2018-05-03T08:49:56.174Z,30.90
2018-05-03T08:54:47.674Z,29.30
2018-05-03T08:59:39.162Z,29.20
2018-05-03T09:04:30.669Z,29.60
2018-05-03T09:09:22.286Z,30.80
2018-05-03T09:14:13.797Z,29.80
2018-05-03T09:19:05.368Z,27.20
2018-05-03T09:23:56.901Z,25.40
2018-05-03T09:28:48.414Z,24.70
2018-05-03T09:33:39.962Z,24.60
2018-05-03T09:38:31.786Z,24.10
2018-05-03T09:43:23.288Z,23.30
2018-05-03T09:48:15.529Z,25.40
2018-05-03T09:53:08.462Z,26.50
2018-05-03T09:57:59.977Z,26.50
2018-05-03T10:02:51.476Z,26.30
2018-05-03T10:07:43.709Z,25.90
2018-05-03T10:12:36.627Z,27.40
2018-05-03T10:17:28.112Z,27.40
2018-05-03T10:22:20.361Z,28.10
2018-05-03T10:27:12.719Z,28.50
2018-05-03T10:32:05.020Z,29.10
2018-05-03T10:36:56.549Z,28.50
2018-05-03T10:41:48.089Z,27.60
2018-05-03T10:46:39.628Z,29.40
2018-05-03T10:51:31.102Z,29.10
2018-05-03T10:56:22.578Z,27.50
2018-05-03T11:01:14.179Z,28.00
2018-05-03T11:06:07.330Z,27.30
2018-05-03T11:10:58.961Z,27.20
2018-05-03T11:15:50.459Z,27.90
2018-05-03T11:20:42.038Z,28.40
2018-05-03T11:25:33.537Z,27.10
2018-05-03T11:30:25.751Z,26.70
2018-05-03T11:35:17.231Z,26.70
2018-05-03T11:40:08.795Z,27.20
2018-05-03T11:45:00.286Z,27.40
2018-05-03T11:49:51.776Z,27.70
2018-05-03T11:54:44.014Z,27.30
2018-05-03T11:59:36.293Z,27.10
2018-05-03T12:04:27.792Z,26.90
2018-05-03T12:09:19.366Z,26.30
2018-05-03T12:14:10.855Z,27.00
2018-05-03T12:19:02.344Z,26.70
2018-05-03T12:23:53.880Z,26.20
2018-05-03T12:28:45.430Z,25.90
2018-05-03T12:33:36.953Z,25.10
2018-05-03T12:38:28.507Z,24.80
2018-05-03T12:43:19.990Z,25.10
2018-05-03T12:48:12.565Z,26.40
2018-05-03T12:53:04.132Z,26.40
2018-05-03T12:57:55.621Z,25.30
2018-05-03T13:02:47.846Z,24.80
2018-05-03T13:07:39.415Z,24.70
2018-05-03T13:12:30.901Z,24.50
2018-05-03T13:17:23.180Z,24.10
2018-05-03T13:22:15.405Z,23.70
2018-05-03T13:27:06.907Z,23.60
2018-05-03T13:31:58.422Z,24.10
2018-05-03T13:36:49.931Z,24.30
2018-05-03T13:41:42.207Z,23.20
2018-05-03T13:46:33.722Z,23.20
2018-05-03T13:51:26.137Z,23.30
2018-05-03T13:56:17.645Z,23.30
2018-05-03T14:01:09.191Z,24.50
2018-05-03T14:06:00.775Z,25.50
2018-05-03T14:10:53.008Z,26.40
2018-05-03T14:15:45.243Z,26.10
2018-05-03T14:20:36.772Z,25.60
2018-05-03T14:25:28.257Z,25.30
2018-05-03T14:30:19.771Z,25.40
2018-05-03T14:35:11.298Z,25.70
2018-05-03T14:40:03.555Z,25.10
2018-05-03T14:44:55.775Z,26.30
2018-05-03T14:49:47.289Z,26.20
2018-05-03T14:54:38.858Z,25.80
2018-05-03T14:59:30.438Z,27.10
2018-05-03T15:04:21.942Z,26.70
2018-05-03T15:09:14.225Z,26.30
2018-05-03T15:14:05.721Z,26.30
2018-05-03T15:18:57.968Z,26.10
2018-05-03T15:23:50.214Z,25.50
2018-05-03T15:28:41.706Z,25.70
2018-05-03T15:33:33.211Z,26.80
2018-05-03T15:38:24.746Z,27.10
2018-05-03T15:43:16.254Z,27.30
2018-05-03T15:48:07.749Z,27.00
2018-05-03T15:52:59.228Z,26.20
2018-05-03T15:57:51.527Z,26.90
2018-05-03T16:02:43.070Z,26.80
2018-05-03T16:07:34.651Z,27.40
2018-05-03T16:12:26.098Z,27.80
2018-05-03T16:17:17.795Z,28.10
2018-05-03T16:22:09.314Z,28.80
2018-05-03T16:27:00.810Z,28.40
2018-05-03T16:31:52.296Z,29.00
2018-05-03T16:36:43.771Z,29.40
2018-05-03T16:41:36.000Z,29.70
2018-05-03T16:46:28.287Z,29.30
2018-05-03T16:51:19.834Z,29.30
2018-05-03T16:56:11.340Z,28.60
2018-05-03T17:01:03.566Z,29.40
2018-05-03T17:05:55.101Z,29.40
2018-05-03T17:10:46.594Z,30.30
2018-05-03T17:15:38.169Z,29.60
2018-05-03T17:20:30.119Z,29.90
2018-05-03T17:25:22.356Z,30.20
2018-05-03T17:30:13.870Z,30.10
2018-05-03T17:35:05.399Z,31.00
2018-05-03T17:39:56.923Z,30.70
2018-05-03T17:44:48.417Z,31.30
2018-05-03T17:49:40.635Z,31.80
2018-05-03T17:54:32.134Z,31.70
2018-05-03T17:59:23.762Z,32.10
2018-05-03T18:04:16.005Z,33.30
2018-05-03T18:09:07.516Z,33.30
2018-05-03T18:13:59.803Z,34.20
2018-05-03T18:18:51.360Z,34.20
2018-05-03T18:23:42.830Z,34.30
2018-05-03T18:28:35.108Z,35.50
2018-05-03T18:33:26.625Z,35.30
2018-05-03T18:38:18.851Z,36.50
2018-05-03T18:43:11.146Z,36.60
2018-05-03T18:48:02.664Z,36.40
2018-05-03T18:52:54.152Z,36.80
2018-05-03T18:57:45.658Z,37.30
2018-05-03T19:02:37.141Z,37.70
2018-05-03T19:07:28.639Z,38.10
2018-05-03T19:12:21.009Z,39.10
2018-05-03T19:17:12.491Z,38.90
2018-05-03T19:22:04.005Z,39.00
2018-05-03T19:26:56.225Z,40.00
2018-05-03T19:31:48.511Z,40.00
2018-05-03T19:36:40.765Z,41.00
2018-05-03T19:41:33.011Z,41.30
2018-05-03T19:46:25.289Z,41.90
2018-05-03T19:51:16.784Z,41.90
2018-05-03T19:56:08.262Z,42.70
2018-05-03T20:00:59.765Z,43.10
2018-05-03T20:05:51.997Z,43.80
2018-05-03T20:10:43.504Z,43.80
2018-05-03T20:15:35.011Z,44.40
2018-05-03T20:20:26.501Z,44.70
2018-05-03T20:25:18.041Z,44.90
2018-05-03T20:30:10.294Z,45.80
2018-05-03T20:35:02.611Z,46.10
2018-05-03T20:39:54.113Z,46.00
2018-05-03T20:44:45.607Z,46.60
2018-05-03T20:49:37.874Z,47.40
2018-05-03T20:54:30.105Z,49.30
2018-05-03T20:59:23.324Z,49.20
2018-05-03T21:04:14.800Z,50.50
2018-05-03T21:09:06.319Z,52.20
2018-05-03T21:13:57.823Z,53.30
2018-05-03T21:18:49.348Z,54.30
2018-05-03T21:23:40.834Z,54.70
2018-05-03T21:28:32.390Z,55.50
2018-05-03T21:33:23.845Z,55.90
2018-05-03T21:38:15.324Z,56.40
2018-05-03T21:43:06.820Z,56.70
2018-05-03T21:47:58.317Z,56.90
2018-05-03T21:52:50.538Z,58.90
2018-05-03T21:57:42.030Z,58.80
2018-05-03T22:02:33.548Z,59.40
2018-05-03T22:07:25.778Z,60.90
2018-05-03T22:12:17.278Z,61.90
2018-05-03T22:17:08.733Z,63.10
2018-05-03T22:22:00.186Z,61.90
2018-05-03T22:26:52.461Z,63.50
2018-05-03T22:31:43.921Z,63.50
2018-05-03T22:36:35.378Z,63.40
2018-05-03T22:41:26.842Z,63.70
2018-05-03T22:46:19.057Z,64.30
2018-05-03T22:51:10.521Z,64.20
2018-05-03T22:56:02.757Z,65.50
2018-05-03T23:00:55.090Z,65.50
2018-05-03T23:05:46.569Z,65.60
2018-05-03T23:10:38.785Z,65.70
2018-05-03T23:15:30.254Z,65.60
2018-05-03T23:20:22.479Z,65.80
2018-05-03T23:25:13.927Z,65.80
2018-05-03T23:30:06.193Z,65.80
2018-05-03T23:34:57.676Z,65.80
2018-05-03T23:39:49.930Z,66.40
2018-05-03T23:44:41.442Z,66.30
2018-05-03T23:49:32.960Z,66.80
2018-05-03T23:54:24.464Z,67.10
2018-05-03T23:59:16.691Z,67.80
